Home > Products > Valid Products > TAF

000
FTUS42 KFFC 260524
TAFAHN
TAF
KAHN 260524Z 2606/2706 26005KT P6SM -RA SCT035 OVC070
     FM260900 28005KT 5SM -RA BR SCT017 OVC030
     FM261300 29005KT P6SM -RA SCT025 OVC050
     FM261600 29006KT P6SM BKN060
     FM261800 27007KT P6SM SCT060
     FM270400 24005KT P6SM BKN100=



000
FTUS42 KFFC 260524
TAFMCN
TAF
KMCN 260524Z 2606/2706 31005KT 6SM -RA BR SCT025 OVC050
     FM260800 31005KT 6SM -RA BR SCT010 OVC025
     FM261400 29008KT P6SM SCT025 BKN050
     FM261600 28008KT P6SM SCT050
     FM262200 24005KT P6SM SCT250=



000
FTUS42 KFFC 260524
TAFPDK
TAF
KPDK 260524Z 2606/2706 26006KT P6SM -RA SCT060 OVC090
     FM260900 25005KT P6SM -RA BKN035 OVC060
     FM261200 30006KT P6SM OVC050
     FM261500 30009KT P6SM SCT060
     FM262100 26007KT P6SM SCT250
     FM270300 24006KT P6SM BKN060=



000
FTUS42 KFFC 260524
TAFATL
TAF
KATL 260524Z 2606/2712 28007KT P6SM -RA SCT060 OVC090
     FM260900 28007KT P6SM -RA BKN035 OVC060
     FM261200 30007KT P6SM OVC050
     FM261500 30010KT P6SM SCT060
     FM262100 26007KT P6SM SCT250
     FM270300 25007KT P6SM BKN060=



000
FTUS42 KFFC 260524
TAFRYY
TAF
KRYY 260524Z 2606/2706 27004KT P6SM -RA SCT060 OVC090
     FM260900 28005KT P6SM -RA SCT035 OVC060
     FM261200 30006KT P6SM SCT050 BKN100
     FM261500 30009KT P6SM SCT060
     FM262100 26007KT P6SM SCT250
     FM270300 24006KT P6SM BKN060
      AMD NOT SKED TIL 261200=



000
FTUS42 KFFC 260524
TAFCSG
TAF
KCSG 260524Z 2606/2706 29005KT P6SM -RA SCT035 OVC070
     FM260800 28005KT 6SM -RA BR SCT025 OVC045
     FM261200 29008KT P6SM SCT035 BKN060
     FM261500 27008KT P6SM SCT050
     FM262000 24005KT P6SM SCT250=



000
FTUS42 KFFC 260524
TAFFTY
TAF
KFTY 260524Z 2606/2706 24005KT P6SM -RA SCT060 OVC090
     FM260900 26005KT P6SM -RA BKN035 OVC060
     FM261200 30006KT P6SM OVC050
     FM261500 30009KT P6SM SCT060
     FM262100 26007KT P6SM SCT250
     FM270300 24006KT P6SM BKN060=



000
FTUS42 KFFC 260333 AAB
TAFATL
TAF AMD
KATL 260333Z 2604/2706 33009KT P6SM BKN090
     FM260600 32009KT P6SM -RA OVC040
     FM260900 31008KT 6SM -RA BR OVC020
     FM261200 30007KT 6SM BR OVC025
     FM261500 30008KT P6SM SCT035
     FM262100 26007KT P6SM SCT250
     FM270300 23005KT P6SM SCT050=



000
FTUS42 KFFC 260245 AAA
TAFATL
TAF AMD
KATL 260245Z 2603/2706 33009KT P6SM BKN120 BKN200
     FM260400 32009KT P6SM -RA OVC040
     FM260700 31008KT 6SM -RA BR OVC020
     FM261200 30007KT 6SM BR OVC025
     FM261500 30008KT P6SM SCT035
     FM262100 26007KT P6SM SCT250
     FM270300 23005KT P6SM SCT050=



000
FTUS42 KFFC 252339
TAFCSG
TAF
KCSG 252339Z 2600/2624 33005KT P6SM BKN100 BKN200
     FM260200 32004KT P6SM OVC080
     FM260400 32008KT P6SM -RA OVC030
     FM260700 31008KT 6SM -RA BR OVC020
     FM261200 30008KT 6SM BR OVC025
     FM261500 30008KT P6SM SCT035
     FM262100 26007KT P6SM SCT250=



000
FTUS42 KFFC 252339
TAFMCN
TAF
KMCN 252339Z 2600/2624 33005KT P6SM -RA BKN045 BKN080
     FM260400 32008KT P6SM -RA OVC030
     FM260700 31008KT 6SM -RA BR OVC020
     FM261200 30008KT 6SM -SHRA BR OVC025
     FM261500 30008KT P6SM SCT035
     FM262100 26007KT P6SM SCT250=



000
FTUS42 KFFC 252339
TAFPDK
TAF
KPDK 252339Z 2600/2624 30005KT P6SM BKN120 BKN200
     FM260200 32004KT P6SM OVC080
     FM260400 32008KT P6SM -RA OVC030
     FM260700 31008KT 6SM -RA BR OVC020
     FM261200 30008KT 6SM BR OVC025
     FM261500 30008KT P6SM SCT035
     FM262100 26007KT P6SM SCT250=



000
FTUS42 KFFC 252339
TAFFTY
TAF
KFTY 252339Z 2600/2624 33005KT P6SM BKN120 BKN200
     FM260200 32004KT P6SM OVC080
     FM260400 32008KT P6SM -RA OVC030
     FM260700 31008KT 6SM -RA BR OVC020
     FM261200 30008KT 6SM BR OVC025
     FM261500 30008KT P6SM SCT035
     FM262100 26007KT P6SM SCT250=



000
FTUS42 KFFC 252339
TAFAHN
TAF
KAHN 252339Z 2600/2624 29005KT P6SM BKN100 OVC250
     FM260200 00000KT P6SM -RA OVC050
     FM260500 31004KT 6SM -RA BR OVC030
     FM260800 32005KT 4SM -RA BR SCT007 OVC020
     FM261300 30005KT P6SM -SHRA BKN025
     FM261500 29006KT P6SM BKN060=



000
FTUS42 KFFC 252339
TAFRYY
TAF
KRYY 252339Z 2600/2624 33005KT P6SM BKN120 BKN200
     FM260200 32004KT P6SM OVC080
     FM260400 32008KT P6SM -RA OVC030
     FM260700 31008KT 6SM -RA BR OVC020
     FM261200 30008KT 6SM BR OVC025
     FM261500 30008KT P6SM SCT035
     FM262100 26007KT P6SM SCT250=



000
FTUS42 KFFC 252339
TAFATL
TAF
KATL 252339Z 2600/2706 33009KT P6SM BKN120 BKN200
     FM260200 32006KT P6SM OVC080
     FM260400 32009KT P6SM -RA OVC030
     FM260700 31008KT 6SM -RA BR OVC020
     FM261200 30007KT 6SM BR OVC025
     FM261500 30008KT P6SM SCT035
     FM262100 26007KT P6SM SCT250
     FM270300 23005KT P6SM SCT050=



000
FTUS42 KFFC 251737
TAFPDK
TAF
KPDK 251737Z 2518/2618 33007KT P6SM SCT120 BKN250
     FM260100 31004KT P6SM OVC080
     FM260400 32005KT P6SM -RA OVC030
     FM260700 31005KT 5SM -RA BR OVC015
     FM261200 31006KT 6SM BR OVC025
     FM261500 30006KT P6SM SCT035=



000
FTUS42 KFFC 251737
TAFFTY
TAF
KFTY 251737Z 2518/2618 33007KT P6SM SCT120 BKN250
     FM260100 31004KT P6SM OVC080
     FM260400 32005KT P6SM -RA OVC030
     FM260700 31005KT 5SM -RA BR OVC015
     FM261200 31006KT 6SM BR OVC025
     FM261500 30006KT P6SM SCT035=



000
FTUS42 KFFC 251737
TAFATL
TAF
KATL 251737Z 2518/2624 33009KT P6SM SCT120 BKN250
     FM260100 32006KT P6SM OVC080
     FM260400 32009KT P6SM -RA OVC030
     FM260700 31008KT 6SM -RA BR OVC015
     FM261200 30007KT 6SM BR OVC025
     FM261500 30008KT P6SM SCT035
     FM262100 26007KT P6SM SCT250=



000
FTUS42 KFFC 251737
TAFAHN
TAF
KAHN 251737Z 2518/2618 29006KT P6SM BKN100 OVC250
     FM260200 00000KT P6SM -RA OVC050
     FM260500 31004KT 6SM -RA BR OVC030
     FM260800 32005KT 4SM -RA BR SCT007 OVC020
     FM261300 30005KT P6SM BKN025
     FM261500 29006KT P6SM BKN060=



000
FTUS42 KFFC 251737
TAFMCN
TAF
KMCN 251737Z 2518/2618 33005KT P6SM VCSH SCT035 BKN070
     FM252000 34004KT P6SM -RA SCT025 OVC050
     FM260200 34007KT 5SM -RA BR SCT012 OVC025
     FM261000 35008KT 4SM -RA BR SCT007 OVC020
     FM261400 31008KT P6SM BKN035
     FM261600 30009KT P6SM SCT250=



000
FTUS42 KFFC 251737
TAFRYY
TAF
KRYY 251737Z 2518/2618 33007KT P6SM SCT120 BKN250
     FM260100 31004KT P6SM OVC080
     FM260400 32005KT P6SM -RA OVC030
     FM260700 31005KT 5SM -RA BR OVC015
     FM261200 31006KT 6SM BR OVC025
     FM261500 30006KT P6SM SCT035=



000
FTUS42 KFFC 251737
TAFCSG
TAF
KCSG 251737Z 2518/2618 01006KT P6SM SCT070 BKN150
     FM260000 34004KT 6SM -RA BR OVC050
     FM260500 35007KT 6SM -RA BR SCT012 OVC025
     FM261000 32006KT P6SM BKN025
     FM261200 31006KT P6SM BKN035
     FM261400 31006KT P6SM SCT100=



000
FTUS42 KFFC 251557 AAB
TAFATL
TAF AMD
KATL 251557Z 2516/2618 33009KT P6SM SCT120 BKN250
     FM252100 33007KT P6SM OVC080
     FM260400 32009KT P6SM -SHRA OVC030
     FM260700 31008KT 5SM -SHRA BR OVC015
     FM261200 31007KT 6SM BR OVC025
     FM261600 30008KT P6SM SCT035=



000
FTUS42 KFFC 251408 AAA
TAFATL
TAF AMD
KATL 251408Z 2514/2618 34010KT P6SM SCT100 BKN250
     FM251500 33009KT P6SM BKN120
     FM252100 33007KT P6SM OVC080
     FM260400 32009KT P6SM -SHRA OVC030
     FM260700 31008KT 5SM -SHRA BR OVC015
     FM261200 31007KT 6SM BR OVC025
     FM261600 30008KT P6SM SCT035=



000
FTUS42 KFFC 251127
TAFMCN
TAF
KMCN 251127Z 2512/2612 33007KT P6SM SCT035 OVC100
     FM251600 33006KT P6SM VCSH SCT035 BKN070
     FM252100 34006KT P6SM -SHRA SCT025 OVC050
     FM260000 33008KT 5SM -SHRA BR SCT012 OVC025
     FM260400 35008KT 4SM -SHRA BR SCT007 OVC012=



000
FTUS42 KFFC 251127
TAFAHN
TAF
KAHN 251127Z 2512/2612 27005KT P6SM SCT060 BKN250
     FM251500 29006KT P6SM BKN060 OVC120
     FM252300 30007KT P6SM OVC050
     FM260200 31006KT P6SM -SHRA OVC030
     FM260600 32008KT 4SM -SHRA BR SCT007 OVC012=



000
FTUS42 KFFC 251127
TAFCSG
TAF
KCSG 251127Z 2512/2612 36007KT P6SM BKN040 OVC100
     FM251400 36007KT P6SM VCSH SCT035 BKN070
     FM252200 35006KT P6SM -SHRA SCT030 OVC050
     FM260200 35008KT 5SM -SHRA BR SCT012 OVC025
     FM260500 34008KT 4SM -SHRA BR SCT007 OVC012=



000
FTUS42 KFFC 251127
TAFATL
TAF
KATL 251127Z 2512/2618 34010KT P6SM SCT100 BKN250
     FM251500 33009KT P6SM BKN120
     FM252100 33007KT P6SM OVC080
     FM260400 32009KT P6SM -SHRA OVC030
     FM260700 31008KT 5SM -SHRA BR OVC015
     FM261200 31007KT 6SM BR OVC025
     FM261600 30008KT P6SM SCT035=



000
FTUS42 KFFC 251127
TAFRYY
TAF
KRYY 251127Z 2512/2612 30004KT P6SM SCT050 BKN250
     FM251500 33007KT P6SM BKN120
     FM252100 31007KT P6SM OVC080
     FM260500 33007KT P6SM -SHRA OVC030
     FM260800 31007KT 5SM -SHRA BR OVC015
     FM261100 31007KT 6SM BR OVC025=



000
FTUS42 KFFC 251127
TAFPDK
TAF
KPDK 251127Z 2512/2612 32008KT P6SM SCT100 BKN250
     FM251500 33007KT P6SM BKN120
     FM252100 32006KT P6SM OVC080
     FM260400 33007KT P6SM -SHRA OVC030
     FM260700 32008KT 5SM -SHRA BR OVC015=



000
FTUS42 KFFC 251127
TAFFTY
TAF
KFTY 251127Z 2512/2612 33004KT P6SM SCT050 BKN250
     FM251500 33007KT P6SM BKN120
     FM252100 31006KT P6SM OVC080
     FM260500 32008KT P6SM -SHRA OVC030
     FM260800 31007KT 5SM -SHRA BR OVC015
     FM261100 31007KT 6SM BR OVC025=



000
FTUS42 KFFC 250932 AAB
TAFCSG
TAF AMD
KCSG 250932Z 2510/2606 36007KT P6SM BKN040 OVC100
     FM251400 36007KT P6SM VCSH SCT035 BKN070
     FM252200 35006KT P6SM -SHRA SCT030 OVC050
     FM260200 33008KT 5SM -SHRA BR SCT012 OVC025=



000
FTUS42 KFFC 250932 AAB
TAFMCN
TAF AMD
KMCN 250932Z 2510/2606 33007KT P6SM SCT035 OVC100
     FM251600 33006KT P6SM VCSH SCT035 BKN070
     FM252100 34006KT P6SM -SHRA SCT025 OVC050
     FM260000 33008KT 5SM -SHRA BR SCT012 OVC025=



000
FTUS42 KFFC 250932 AAB
TAFATL
TAF AMD
KATL 250932Z 2510/2612 33010KT P6SM SCT100 BKN250
     FM251500 33008KT P6SM BKN120
     FM252100 33007KT P6SM OVC080
     FM260400 32009KT P6SM -SHRA OVC030
     FM260700 31008KT 5SM -SHRA BR OVC015=



000
FTUS42 KFFC 250932 AAA
TAFPDK
TAF AMD
KPDK 250932Z 2510/2606 32008KT P6SM SCT100 BKN250
     FM251500 33007KT P6SM BKN120
     FM252100 31006KT P6SM OVC080
     FM260400 32009KT P6SM -SHRA OVC030=



000
FTUS42 KFFC 250746 AAA
TAFMCN
TAF AMD
KMCN 250746Z 2508/2606 31005KT P6SM BKN050 OVC100
     FM251400 33006KT P6SM VCSH SCT030 BKN070
     FM252100 34006KT P6SM -SHRA SCT025 OVC050
     FM260000 33008KT 5SM -SHRA BR SCT012 OVC025=



000
FTUS42 KFFC 250746 AAA
TAFATL
TAF AMD
KATL 250746Z 2508/2612 32009KT P6SM SCT100 BKN250
     FM251500 33008KT P6SM BKN120
     FM252100 33007KT P6SM OVC080
     FM260400 32009KT P6SM -SHRA OVC030
     FM260700 31008KT 5SM -SHRA BR OVC015=



000
FTUS42 KFFC 250746 AAA
TAFCSG
TAF AMD
KCSG 250746Z 2508/2606 34004KT P6SM SCT050 BKN100
     FM251600 36007KT P6SM VCSH SCT035 BKN070
     FM252200 35006KT P6SM -SHRA SCT030 OVC050
     FM260200 33008KT 5SM -SHRA BR SCT012 OVC025=



000
FTUS42 KFFC 250524
TAFFTY
TAF
KFTY 250524Z 2506/2606 29004KT P6SM SCT050 BKN250
     FM251500 33007KT P6SM BKN120
     FM252100 31006KT P6SM OVC080
     FM260500 32008KT P6SM -SHRA OVC030=



000
FTUS42 KFFC 250524
TAFRYY
TAF
KRYY 250524Z 2506/2606 30004KT P6SM SCT050 BKN250
     FM251500 33007KT P6SM BKN120
     FM252100 31007KT P6SM OVC080
     FM260500 33007KT P6SM -SHRA OVC030
      AMD NOT SKED TIL 251200=



000
FTUS42 KFFC 250524
TAFATL
TAF
KATL 250524Z 2506/2612 29009KT P6SM SCT050 BKN250
     FM251500 33008KT P6SM BKN120
     FM252100 33007KT P6SM OVC080
     FM260400 32009KT P6SM -SHRA OVC030
     FM260700 31008KT 5SM -SHRA BR OVC015=



000
FTUS42 KFFC 250524
TAFCSG
TAF
KCSG 250524Z 2506/2606 33004KT P6SM FEW012 BKN050
      TEMPO 2507/2510 SCT012 BKN025
     FM251600 36006KT P6SM VCSH SCT028 BKN060
     FM252200 35006KT P6SM -SHRA SCT030 OVC050
     FM260200 33007KT 5SM -SHRA BR SCT012 OVC025=



000
FTUS42 KFFC 250524
TAFPDK
TAF
KPDK 250524Z 2506/2606 30005KT P6SM SCT050 BKN250
     FM251500 33007KT P6SM BKN120
     FM252100 31006KT P6SM OVC080
     FM260400 32009KT P6SM -SHRA OVC030=



000
FTUS42 KFFC 250524
TAFAHN
TAF
KAHN 250524Z 2506/2606 27005KT P6SM SCT060 BKN250
     FM251500 29006KT P6SM BKN060 OVC120
     FM252300 30007KT P6SM OVC050
     FM260200 31006KT P6SM -SHRA OVC030=



000
FTUS42 KFFC 250524
TAFMCN
TAF
KMCN 250524Z 2506/2606 29003KT 6SM BR FEW008 SCT017 OVC100
      TEMPO 2506/2510 5SM BR SCT008 OVC012
     FM251400 33006KT P6SM VCSH SCT028 BKN060
     FM252100 34006KT P6SM -SHRA SCT030 OVC050
     FM260000 33007KT 5SM -SHRA BR SCT012 OVC025=



000
FTUS42 KFFC 250340 AAA
TAFMCN
TAF AMD
KMCN 250340Z 2504/2524 26003KT P6SM SCT020 SCT030
     FM251500 33005KT P6SM BKN120 PROB30 2519/2523 6SM -SHRA BR
      BKN040=



000
FTUS42 KFFC 250339 AAB
TAFATL
TAF AMD
KATL 250339Z 2504/2606 27009KT P6SM BKN250
     FM251500 33007KT P6SM BKN120
     FM252100 30007KT P6SM OVC080
     FM260400 34007KT P6SM -SHRA OVC030=



000
FTUS42 KFFC 250151 AAA
TAFATL
TAF AMD
KATL 250151Z 2502/2606 27008KT P6SM SCT250
     FM251500 33007KT P6SM BKN120
     FM252100 30007KT P6SM OVC080
     FM260400 34007KT P6SM -SHRA OVC030=



000
FTUS42 KFFC 242335
TAFFTY
TAF
KFTY 242335Z 2500/2524 26003KT P6SM SCT250
     FM251500 33005KT P6SM BKN120
     FM252100 30007KT P6SM OVC080=



000
FTUS42 KFFC 242335
TAFATL
TAF
KATL 242335Z 2500/2606 26008KT P6SM FEW050 SCT250
     FM251500 33007KT P6SM BKN120
     FM252100 30007KT P6SM OVC080
     FM260400 34007KT P6SM -SHRA OVC030=



000
FTUS42 KFFC 242335
TAFMCN
TAF
KMCN 242335Z 2500/2524 26003KT P6SM SCT250
     FM251500 33005KT P6SM BKN120 PROB30 2519/2523 6SM -SHRA BR
      BKN040=



000
FTUS42 KFFC 242335
TAFPDK
TAF
KPDK 242335Z 2500/2524 26004KT P6SM SCT250
     FM251500 33005KT P6SM BKN120
     FM252100 30007KT P6SM OVC080=



000
FTUS42 KFFC 242335
TAFAHN
TAF
KAHN 242335Z 2500/2524 23003KT P6SM SCT250
     FM251500 33005KT P6SM BKN120
     FM252100 30007KT P6SM OVC080=



000
FTUS42 KFFC 242335
TAFRYY
TAF
KRYY 242335Z 2500/2524 26007KT P6SM SCT250
     FM251500 33005KT P6SM BKN120
     FM252100 30007KT P6SM OVC080=



000
FTUS42 KFFC 242335
TAFCSG
TAF
KCSG 242335Z 2500/2524 30007KT P6SM SCT250
     FM251500 33005KT P6SM BKN120 PROB30 2519/2523 6SM -SHRA BR
      BKN040=



000
FTUS42 KFFC 242205 AAB
TAFATL
TAF AMD
KATL 242205Z 2422/2524 26010KT P6SM FEW050 SCT250
     FM250000 30010KT P6SM SCT080
     FM251500 33007KT P6SM BKN120
     FM252100 30007KT P6SM OVC080=



000
FTUS42 KFFC 241941 AAA
TAFATL
TAF AMD
KATL 241941Z 2420/2524 26012G20KT P6SM FEW050 SCT250
     FM250000 30010KT P6SM SCT080
     FM251500 33007KT P6SM BKN120
     FM252100 30007KT P6SM OVC080=



000
FTUS42 KFFC 241723
TAFRYY
TAF
KRYY 241723Z 2418/2518 24012G22KT P6SM SCT030
     FM242200 26010G20KT P6SM SCT040
     FM250000 30008KT P6SM SCT080
     FM251500 33006KT P6SM BKN120=



000
FTUS42 KFFC 241723
TAFAHN
TAF
KAHN 241723Z 2418/2518 23012G22KT P6SM SCT030
     FM242200 24010G20KT P6SM SCT040
     FM250000 28008KT P6SM SCT080
     FM251500 31006KT P6SM BKN120=



000
FTUS42 KFFC 241723
TAFATL
TAF
KATL 241723Z 2418/2524 24014G24KT P6SM SCT030
     FM242200 26012G21KT P6SM SCT040
     FM250000 30010KT P6SM SCT080
     FM251500 33007KT P6SM BKN120
     FM252100 30007KT P6SM OVC080=



000
FTUS42 KFFC 241723
TAFFTY
TAF
KFTY 241723Z 2418/2518 24012G22KT P6SM SCT030
     FM242200 26010G20KT P6SM SCT040
     FM250000 30008KT P6SM SCT080
     FM251500 33006KT P6SM BKN120=



000
FTUS42 KFFC 241723
TAFPDK
TAF
KPDK 241723Z 2418/2518 24012G22KT P6SM SCT030
     FM242200 26010G20KT P6SM SCT040
     FM250000 30008KT P6SM SCT080
     FM251500 33006KT P6SM BKN120=



000
FTUS42 KFFC 241723
TAFMCN
TAF
KMCN 241723Z 2418/2518 24012G22KT P6SM SCT030
     FM242200 26010G20KT P6SM SCT040
     FM250000 30008KT P6SM SCT080
     FM251500 33006KT P6SM BKN120=



000
FTUS42 KFFC 241723
TAFCSG
TAF
KCSG 241723Z 2418/2518 25014G24KT P6SM SCT030
     FM242200 27012G21KT P6SM SCT040
     FM250000 32010KT P6SM SCT080
     FM251500 35007KT P6SM BKN120=



000
FTUS42 KFFC 241657 AAE
TAFATL
TAF AMD
KATL 241657Z 2417/2518 24014G24KT P6SM SCT030
     FM242200 27012G21KT P6SM SCT040
     FM250000 30010KT P6SM SCT080
     FM251200 33007KT P6SM BKN120=



000
FTUS42 KFFC 241545 AAD
TAFATL
TAF AMD
KATL 241545Z 2416/2518 24014G24KT P6SM BKN025
     FM241800 25014G24KT P6SM SCT035
     FM242200 27012G21KT P6SM SCT040
     FM250000 30010KT P6SM SCT080
     FM251200 33007KT P6SM BKN120=



000
FTUS42 KFFC 241413 AAC
TAFAHN
TAF AMD
KAHN 241413Z 2414/2512 21005KT 4SM BR BKN006
     FM241500 23010G18KT P6SM BKN020
     FM241600 24012G20KT P6SM SCT035
     FM242300 27009KT P6SM SCT080=



000
FTUS42 KFFC 241409 AAC
TAFATL
TAF AMD
KATL 241409Z 2414/2518 22012G20KT P6SM BKN015
     FM241600 25014G24KT P6SM SCT035
     FM242100 27012G21KT P6SM SCT040
     FM250000 30010KT P6SM SCT080
     FM251200 33007KT P6SM BKN120=



000
FTUS42 KFFC 241352 AAB
TAFAHN
TAF AMD
KAHN 241352Z 2414/2512 21005KT 1/2SM FG VV002
     FM241500 23010G18KT P6SM BKN020
     FM241600 24012G20KT P6SM SCT035
     FM242300 27009KT P6SM SCT080=



000
FTUS42 KFFC 241349 AAB
TAFATL
TAF AMD
KATL 241349Z 2414/2518 22012G20KT P6SM SCT020
     FM241600 25014G24KT P6SM SCT035
     FM242100 27012G21KT P6SM SCT040
     FM250000 30010KT P6SM SCT080
     FM251200 33007KT P6SM BKN120=



000
FTUS42 KFFC 241311 AAA
TAFAHN
TAF AMD
KAHN 241311Z 2413/2512 19006KT 1/2SM FG VV002
     FM241330 19006KT 4SM BR FEW010
     FM241400 23010G18KT P6SM BKN023
     FM241600 24012G20KT P6SM SCT035
     FM242300 27009KT P6SM SCT080=



000
FTUS42 KFFC 241305 AAA
TAFFTY
TAF AMD
KFTY 241305Z 2413/2512 20007KT P6SM FEW010
     FM241400 22010G18KT P6SM SCT028
     FM241600 25012G22KT P6SM SCT035
     FM242100 27009G17KT P6SM SCT040
     FM250000 30009KT P6SM SCT080=



000
FTUS42 KFFC 241305 AAA
TAFPDK
TAF AMD
KPDK 241305Z 2413/2512 20008KT P6SM FEW010
     FM241400 22010G18KT P6SM SCT028
     FM241600 25012G23KT P6SM SCT035
     FM242100 27010G20KT P6SM SCT040
     FM250000 30009KT P6SM SCT080=



000
FTUS42 KFFC 241305 AAA
TAFRYY
TAF AMD
KRYY 241305Z 2413/2512 21007KT P6SM FEW010
     FM241400 24011G19KT P6SM SCT028
     FM241600 25012G23KT P6SM SCT035
     FM242100 27009G17KT P6SM SCT040
     FM250000 30009KT P6SM SCT080=



000
FTUS42 KFFC 241305 AAA
TAFATL
TAF AMD
KATL 241305Z 2413/2518 21009KT P6SM FEW010
     FM241400 23012G20KT P6SM SCT027
     FM241600 25014G24KT P6SM SCT035
     FM242100 27012G21KT P6SM SCT040
     FM250000 30010KT P6SM SCT080
     FM251200 33007KT P6SM BKN120=



000
FTUS42 KFFC 241134
TAFCSG
TAF
KCSG 241134Z 2412/2512 22007KT P6SM BKN008 OVC015
      TEMPO 2412/2414 SCT008 BKN015
     FM241400 24010G17KT P6SM BKN021 OVC030
     FM241700 26011G20KT P6SM SCT035
     FM242000 29009KT P6SM SCT070=



000
FTUS42 KFFC 241134
TAFATL
TAF
KATL 241134Z 2412/2518 21009KT P6SM SCT016 BKN025
     FM241400 23012G20KT P6SM BKN027
     FM241600 25014G24KT P6SM SCT035
     FM242100 27012G21KT P6SM SCT040
     FM250000 30010KT P6SM SCT080
     FM251200 33007KT P6SM BKN120=



000
FTUS42 KFFC 241134
TAFRYY
TAF
KRYY 241134Z 2412/2512 21007KT P6SM SCT018 BKN025
     FM241400 24011G19KT P6SM BKN028
     FM241600 25012G23KT P6SM SCT035
     FM242100 27009G17KT P6SM SCT040
     FM250000 30009KT P6SM SCT080=



000
FTUS42 KFFC 241134
TAFAHN
TAF
KAHN 241134Z 2412/2512 21006KT P6SM BKN007 OVC025
      TEMPO 2412/2413 3SM BR BKN002 OVC015
     FM241400 23010G18KT P6SM BKN023
     FM241600 24012G20KT P6SM SCT035
     FM242300 27009KT P6SM SCT080=



000
FTUS42 KFFC 241134
TAFMCN
TAF
KMCN 241134Z 2412/2512 20006KT P6SM BKN007 OVC014
      TEMPO 2412/2414 SCT007 OVC014
     FM241400 24009G15KT P6SM BKN015 OVC030
     FM241700 25010G18KT P6SM SCT035 BKN070
     FM242200 27007KT P6SM SCT070=



000
FTUS42 KFFC 241134
TAFPDK
TAF
KPDK 241134Z 2412/2512 19007KT P6SM SCT018 BKN025
      TEMPO 2412/2413 BKN018
     FM241400 22010G18KT P6SM BKN028
     FM241600 25012G23KT P6SM SCT035
     FM242100 27010G20KT P6SM SCT040
     FM250000 30009KT P6SM SCT080=



000
FTUS42 KFFC 241134
TAFFTY
TAF
KFTY 241134Z 2412/2512 20007KT P6SM SCT018 BKN025
     FM241400 22010G18KT P6SM BKN028
     FM241600 25012G22KT P6SM SCT035
     FM242100 27009G17KT P6SM SCT040
     FM250000 30009KT P6SM SCT080=



000
FTUS42 KFFC 241056 AAC
TAFAHN
TAF AMD
KAHN 241056Z 2411/2506 21006KT P6SM BKN007 OVC025
      TEMPO 2411/2413 4SM BR BKN003 OVC015
     FM241400 23010G18KT P6SM BKN023 OVC035
     FM241600 24012G20KT P6SM SCT035
     FM242300 27009KT P6SM SCT080=



000
FTUS42 KFFC 240930 AAB
TAFATL
TAF AMD
KATL 240930Z 2410/2512 20009KT P6SM FEW008 BKN016 OVC025
     FM241400 24012G20KT P6SM BKN024 OVC035
     FM241700 25014G24KT P6SM SCT035
     FM242100 27012G21KT P6SM SCT040
     FM250000 30010KT P6SM SCT080=



000
FTUS42 KFFC 240930 AAB
TAFCSG
TAF AMD
KCSG 240930Z 2410/2506 21007KT P6SM BKN008 OVC015
      TEMPO 2410/2412 4SM BR OVC005
     FM241200 22008KT P6SM SCT012 OVC014
     FM241400 24010G17KT P6SM BKN021 OVC030
     FM241700 26011G20KT P6SM SCT035
     FM242000 29009KT P6SM SCT050=



000
FTUS42 KFFC 240930 AAB
TAFPDK
TAF AMD
KPDK 240930Z 2410/2506 19007KT P6SM FEW008 BKN018 OVC025
     FM241400 24010G18KT P6SM BKN024 OVC035
     FM241700 25012G23KT P6SM SCT035
     FM242100 27010G20KT P6SM SCT040
     FM250000 30009KT P6SM SCT080=



000
FTUS42 KFFC 240930 AAB
TAFAHN
TAF AMD
KAHN 240930Z 2410/2506 21006KT P6SM SCT008 OVC025
      TEMPO 2410/2412 6SM BR BKN008 OVC015
     FM241400 23010G18KT P6SM BKN023 OVC035
     FM241600 24012G20KT P6SM SCT035
     FM242300 27009KT P6SM SCT080=



000
FTUS42 KFFC 240930 AAB
TAFFTY
TAF AMD
KFTY 240930Z 2410/2506 20007KT P6SM FEW008 BKN018 OVC025
     FM241400 24010G18KT P6SM BKN025 OVC035
     FM241700 25012G22KT P6SM SCT035
     FM242100 27009G17KT P6SM SCT040
     FM250000 30009KT P6SM SCT080=



000
FTUS42 KFFC 240745 AAA
TAFCSG
TAF AMD
KCSG 240745Z 2408/2506 21007KT P6SM OVC008
      TEMPO 2409/2412 4SM BR OVC006
     FM241400 24010G17KT P6SM BKN015 OVC030
     FM241700 26011G20KT P6SM BKN035
     FM242000 29009KT P6SM SCT050=



000
FTUS42 KFFC 240745 AAA
TAFAHN
TAF AMD
KAHN 240745Z 2408/2506 20006KT P6SM SCT015 BKN025
     FM240930 21007KT P6SM FEW008 BKN018 OVC025
      TEMPO 2410/2412 6SM BR BKN008 OVC015
     FM241400 23010G18KT P6SM BKN023 OVC035
     FM241700 24012G20KT P6SM SCT035
     FM242300 27009KT P6SM SCT080=



000
FTUS42 KFFC 240745 AAA
TAFFTY
TAF AMD
KFTY 240745Z 2408/2506 20009KT P6SM SCT008 BKN018 OVC025
      TEMPO 2409/2412 6SM BR BKN008 OVC015
     FM241400 24010G18KT P6SM BKN021 OVC035
     FM241700 25012G22KT P6SM BKN035
     FM242100 27010G20KT P6SM SCT040
     FM250000 30009KT P6SM SCT080=



000
FTUS42 KFFC 240745 AAA
TAFMCN
TAF AMD
KMCN 240745Z 2408/2506 20006KT P6SM SCT007 OVC014
      TEMPO 2410/2413 4SM BR BKN007 OVC014
     FM241400 24009G15KT P6SM BKN015 OVC030
     FM241700 25010G18KT P6SM SCT035 BKN090
     FM242200 27007KT P6SM SCT100=



000
FTUS42 KFFC 240745 AAA
TAFATL
TAF AMD
KATL 240745Z 2408/2512 20010KT P6SM SCT008 BKN015 OVC025
      TEMPO 2409/2412 6SM BR BKN008 OVC015
     FM241400 24012G20KT P6SM BKN021 OVC035
     FM241700 25014G24KT P6SM BKN035
     FM242100 27012G21KT P6SM SCT040
     FM250000 30010KT P6SM SCT080=



000
FTUS42 KFFC 240745 AAA
TAFPDK
TAF AMD
KPDK 240745Z 2408/2506 19008KT P6SM SCT008 BKN017 OVC025
      TEMPO 2409/2412 6SM BR BKN008 OVC015
     FM241400 24010G18KT P6SM BKN021 OVC035
     FM241700 25012G23KT P6SM BKN035
     FM242100 27010G20KT P6SM SCT040
     FM250000 30009KT P6SM SCT080=



000
FTUS42 KFFC 240524
TAFATL
TAF
KATL 240524Z 2406/2512 20011KT P6SM OVC015
     FM240800 22010KT 6SM BR OVC007
     FM241400 24012G20KT P6SM BKN015 OVC030
     FM241700 25014G24KT P6SM BKN035
     FM242100 27012G21KT P6SM SCT040
     FM250000 30010KT P6SM SCT080=



000
FTUS42 KFFC 240524
TAFCSG
TAF
KCSG 240524Z 2406/2506 21006KT P6SM OVC014
     FM240800 22007KT 6SM BR OVC008
     FM241000 23007KT 4SM BR OVC006
     FM241400 24010G17KT P6SM BKN015 OVC030
     FM241700 26011G20KT P6SM BKN035
     FM242000 29009KT P6SM SCT050=



000
FTUS42 KFFC 240524
TAFFTY
TAF
KFTY 240524Z 2406/2506 20009KT P6SM OVC018
     FM240900 22009KT 6SM BR OVC008
     FM241400 24010G18KT P6SM BKN015 OVC030
     FM241700 25012G22KT P6SM BKN035
     FM242100 27010G20KT P6SM SCT040
     FM250000 30009KT P6SM SCT080=



000
FTUS42 KFFC 240524
TAFRYY
TAF
KRYY 240524Z 2406/2506 21008KT P6SM OVC014
     FM240830 22009KT 6SM BR OVC007
     FM241400 24010G19KT P6SM BKN015 OVC030
     FM241700 25012G24KT P6SM BKN035
     FM242100 27010G20KT P6SM SCT040
     FM250000 30008KT P6SM SCT080
      AMD NOT SKED TIL 241200=



000
FTUS42 KFFC 240524
TAFAHN
TAF
KAHN 240524Z 2406/2506 20007KT P6SM SCT015 BKN021
     FM240830 21007KT 6SM BR OVC008
     FM241000 21007KT 5SM BR OVC005
     FM241400 23010G18KT P6SM BKN015 OVC030
     FM241700 24012G20KT P6SM SCT035
     FM242300 27009KT P6SM SCT080=



000
FTUS42 KFFC 240524
TAFPDK
TAF
KPDK 240524Z 2406/2506 20008KT P6SM OVC017
     FM240900 21008KT 6SM BR OVC007
     FM241400 24010G18KT P6SM BKN015 OVC030
     FM241700 25012G23KT P6SM BKN035
     FM242100 27010G20KT P6SM SCT040
     FM250000 30009KT P6SM SCT080=



000
FTUS42 KFFC 240524
TAFMCN
TAF
KMCN 240524Z 2406/2506 21006KT P6SM OVC016
     FM240800 21007KT 6SM BR OVC008
     FM241000 22007KT 4SM BR OVC006
     FM241400 24009G15KT P6SM BKN015 OVC030
     FM241700 25010G18KT P6SM SCT035 BKN090
     FM242200 27007KT P6SM SCT100=



000
FTUS42 KFFC 240344 AAC
TAFRYY
TAF AMD
KRYY 240344Z 2404/2424 13008KT P6SM BKN009 BKN025
     FM240500 20008KT 3SM BR OVC004
     FM241500 24010G15KT P6SM BKN015 OVC030
     FM241700 25010G20KT P6SM SCT035
     FM242300 27007KT P6SM SCT160
      AMD NOT SKED 2404/2412=



000
FTUS42 KFFC 240344 AAB
TAFCSG
TAF AMD
KCSG 240344Z 2404/2424 22008KT P6SM OVC015
     FM240500 20008KT 2SM BR OVC006
     FM241400 24010G15KT P6SM BKN015 OVC030
     FM241600 25010G20KT P6SM SCT035
     FM242300 27007KT P6SM FEW200=



000
FTUS42 KFFC 240344 AAC
TAFPDK
TAF AMD
KPDK 240344Z 2404/2424 20008KT 6SM BR BKN015 BKN025
     FM240500 22006KT 3SM BR OVC004
     FM241500 24010G15KT P6SM BKN015 OVC030
     FM241700 25010G20KT P6SM SCT035
     FM242300 27007KT P6SM SCT160=



000
FTUS42 KFFC 240344 AAC
TAFAHN
TAF AMD
KAHN 240344Z 2404/2424 22006KT P6SM BKN015
     FM240500 22006KT 3SM BR OVC003
      TEMPO 2408/2412 1SM BR OVC002
     FM241500 23008G15KT 3SM BR BKN015 OVC030
     FM241700 23010G20KT P6SM SCT023
     FM242300 27007KT P6SM SCT160=



000
FTUS42 KFFC 240344 AAC
TAFFTY
TAF AMD
KFTY 240344Z 2404/2424 20009G15KT 6SM BR BKN015
     FM240500 22008KT 3SM BR OVC004
     FM241500 24010G15KT P6SM BKN015 OVC030
     FM241700 25010G20KT P6SM SCT035
     FM242300 27007KT P6SM SCT160=



000
FTUS42 KFFC 240344 AAC
TAFMCN
TAF AMD
KMCN 240344Z 2404/2424 21008KT P6SM BKN015 BKN050
     FM240500 21008KT 2SM BR OVC006
     FM241400 24010G15KT P6SM BKN015 OVC030
     FM241600 25010G20KT P6SM SCT035
     FM242300 27007KT P6SM FEW200=



000
FTUS42 KFFC 240344 AAB
TAFCSG
TAF AMD
KCSG 240344Z 2404/2424 22008KT P6SM OVC015
     FM240500 20008KT 2SM BR OVC006
     FM241400 24010G15KT P6SM BKN015 OVC030
     FM241600 25010G20KT P6SM SCT035
     FM242300 27007KT P6SM FEW200=



000
FTUS42 KFFC 240344 AAC
TAFFTY
TAF AMD
KFTY 240344Z 2404/2424 20009G15KT 6SM BR BKN015
     FM240500 22008KT 3SM BR OVC004
     FM241500 24010G15KT P6SM BKN015 OVC030
     FM241700 25010G20KT P6SM SCT035
     FM242300 27007KT P6SM SCT160=



000
FTUS42 KFFC 240344 AAC
TAFMCN
TAF AMD
KMCN 240344Z 2404/2424 21008KT P6SM BKN015 BKN050
     FM240500 21008KT 2SM BR OVC006
     FM241400 24010G15KT P6SM BKN015 OVC030
     FM241600 25010G20KT P6SM SCT035
     FM242300 27007KT P6SM FEW200=



000
FTUS42 KFFC 240344 AAC
TAFAHN
TAF AMD
KAHN 240344Z 2404/2424 22006KT P6SM BKN015
     FM240500 22006KT 3SM BR OVC003
      TEMPO 2408/2412 1SM BR OVC002
     FM241500 23008G15KT 3SM BR BKN015 OVC030
     FM241700 23010G20KT P6SM SCT023
     FM242300 27007KT P6SM SCT160=



000
FTUS42 KFFC 240344 AAC
TAFRYY
TAF AMD
KRYY 240344Z 2404/2424 13008KT P6SM BKN009 BKN025
     FM240500 20008KT 3SM BR OVC004
     FM241500 24010G15KT P6SM BKN015 OVC030
     FM241700 25010G20KT P6SM SCT035
     FM242300 27007KT P6SM SCT160
      AMD NOT SKED 2404/2412=



000
FTUS42 KFFC 240344 AAC
TAFPDK
TAF AMD
KPDK 240344Z 2404/2424 20008KT 6SM BR BKN015 BKN025
     FM240500 22006KT 3SM BR OVC004
     FM241500 24010G15KT P6SM BKN015 OVC030
     FM241700 25010G20KT P6SM SCT035
     FM242300 27007KT P6SM SCT160=



000
FTUS42 KFFC 240343 AAD
TAFATL
TAF AMD
KATL 240343Z 2404/2506 20010KT 6SM BR BKN015
     FM240500 22010KT 3SM BR OVC004
     FM241500 24012G19KT P6SM BKN015 OVC030
     FM241700 25012G25KT P6SM SCT035
     FM242300 27009KT P6SM SCT160=



000
FTUS42 KFFC 240305 AAA
TAFCSG
TAF AMD
KCSG 240305Z 2403/2424 20010KT P6SM OVC015
     FM240400 20008KT 2SM BR OVC006
     FM241400 24010G15KT P6SM BKN015 OVC030
     FM241600 25010G20KT P6SM SCT035
     FM242300 27007KT P6SM FEW200=



000
FTUS42 KFFC 240305 AAB
TAFRYY
TAF AMD
KRYY 240305Z 2403/2424 13008KT P6SM BKN009 BKN025
     FM240400 20008KT 3SM BR OVC004
     FM241500 24010G15KT P6SM BKN015 OVC030
     FM241700 25010G20KT P6SM SCT035
     FM242300 27007KT P6SM SCT160
      AMD NOT SKED 2404/2412=



000
FTUS42 KFFC 240305 AAB
TAFAHN
TAF AMD
KAHN 240305Z 2403/2424 22006KT P6SM BKN015
     FM240400 22006KT 3SM BR OVC003
      TEMPO 2408/2412 1SM BR OVC002
     FM241500 23008G15KT 3SM BR BKN015 OVC030
     FM241700 23010G20KT P6SM SCT023
     FM242300 27007KT P6SM SCT160=



000
FTUS42 KFFC 240305 AAB
TAFFTY
TAF AMD
KFTY 240305Z 2403/2424 20009G15KT 6SM BR BKN020
     FM240400 22008KT 3SM BR OVC004
     FM241500 24010G15KT P6SM BKN015 OVC030
     FM241700 25010G20KT P6SM SCT035
     FM242300 27007KT P6SM SCT160=



000
FTUS42 KFFC 240305 AAB
TAFMCN
TAF AMD
KMCN 240305Z 2403/2424 21008G15KT P6SM BKN015 BKN050
     FM240400 21008KT 2SM BR OVC006
     FM241400 24010G15KT P6SM BKN015 OVC030
     FM241600 25010G20KT P6SM SCT035
     FM242300 27007KT P6SM FEW200=



000
FTUS42 KFFC 240305 AAB
TAFPDK
TAF AMD
KPDK 240305Z 2403/2424 20008KT 6SM BR BKN015 BKN025
     FM240400 22006KT 3SM BR OVC004
     FM241500 24010G15KT P6SM BKN015 OVC030
     FM241700 25010G20KT P6SM SCT035
     FM242300 27007KT P6SM SCT160=



000
FTUS42 KFFC 240305 AAC
TAFATL
TAF AMD
KATL 240305Z 2403/2506 20010KT 6SM BR BKN015
     FM240400 22010KT 3SM BR OVC004
     FM241500 24012G19KT P6SM BKN015 OVC030
     FM241700 25012G25KT P6SM SCT035
     FM242300 27009KT P6SM SCT160=



000
FTUS42 KFFC 240203 AAA
TAFMCN
TAF AMD
KMCN 240203Z 2402/2424 20008G15KT P6SM BKN015 BKN050
     FM240300 20008KT 2SM BR OVC006
     FM241400 24010G15KT P6SM BKN015 OVC030
     FM241600 25010G20KT P6SM SCT035
     FM242300 27007KT P6SM FEW200=



000
FTUS42 KFFC 240202 AAA
TAFAHN
TAF AMD
KAHN 240202Z 2402/2424 11006KT P6SM FEW002 BKN025
     FM240300 16006KT 3SM BR OVC003
      TEMPO 2408/2412 1SM BR OVC002
     FM241500 23008G15KT 3SM BR BKN015 OVC030
     FM241700 23010G20KT P6SM SCT023
     FM242300 27007KT P6SM SCT160=



000
FTUS42 KFFC 240011 AAB
TAFATL
TAF AMD
KATL 240011Z 2400/2506 19010KT 6SM BR BKN015
     FM240300 21010KT 3SM BR OVC004
     FM241500 24012G19KT P6SM BKN015 OVC030
     FM241700 25012G25KT P6SM SCT035
     FM242300 27009KT P6SM SCT160=



000
FTUS42 KFFC 232354 AAA
TAFATL
TAF AMD
KATL 232354Z 2400/2506 15010KT 6SM BR BKN025
     FM240300 19010KT 3SM BR OVC004
     FM241500 24012G19KT P6SM BKN015 OVC030
     FM241700 25012G25KT P6SM SCT035
     FM242300 27009KT P6SM SCT160=



000
FTUS42 KFFC 232354 AAA
TAFFTY
TAF AMD
KFTY 232354Z 2400/2424 15008KT 6SM BR BKN025
     FM240300 19006KT 3SM BR OVC004
     FM241500 24010G15KT P6SM BKN015 OVC030
     FM241700 25010G20KT P6SM SCT035
     FM242300 27007KT P6SM SCT160=



000
FTUS42 KFFC 232354 AAA
TAFRYY
TAF AMD
KRYY 232354Z 2400/2424 13008KT P6SM BKN009 BKN025
     FM240300 20008KT 3SM BR OVC004
     FM241500 24010G15KT P6SM BKN015 OVC030
     FM241700 25010G20KT P6SM SCT035
     FM242300 27007KT P6SM SCT160=



000
FTUS42 KFFC 232354 AAA
TAFPDK
TAF AMD
KPDK 232354Z 2400/2424 15008KT 6SM BR BKN007 BKN025
     FM240300 19006KT 3SM BR OVC004
     FM241500 24010G15KT P6SM BKN015 OVC030
     FM241700 25010G20KT P6SM SCT035
     FM242300 27007KT P6SM SCT160=



000
FTUS42 KFFC 232335
TAFATL
TAF
KATL 232335Z 2400/2506 14010KT P6SM SCT025 BKN080
     FM240100 15010KT 4SM BR BKN025
     FM240300 19010KT 3SM BR OVC004
     FM241500 24012G19KT P6SM BKN015 OVC030
     FM241700 25012G25KT P6SM SCT035
     FM242300 27009KT P6SM SCT160=



000
FTUS42 KFFC 232335
TAFFTY
TAF
KFTY 232335Z 2400/2424 14008KT P6SM FEW007 BKN035
     FM240100 15008KT 4SM BR BKN025
     FM240300 19006KT 3SM BR OVC004
     FM241500 24010G15KT P6SM BKN015 OVC030
     FM241700 25010G20KT P6SM SCT035
     FM242300 27007KT P6SM SCT160=



000
FTUS42 KFFC 232335
TAFCSG
TAF
KCSG 232335Z 2400/2424 20010KT P6SM BKN018
     FM240300 20008KT 2SM BR OVC006
     FM241400 24010G15KT P6SM BKN015 OVC030
     FM241600 25010G20KT P6SM SCT035
     FM242300 27007KT P6SM FEW200=



000
FTUS42 KFFC 232335
TAFAHN
TAF
KAHN 232335Z 2400/2424 11006KT 4SM -SHRA BR BKN005 OVC012
     FM240200 16006KT 2SM BR OVC003
      TEMPO 2408/2412 1SM BR OVC002
     FM241500 23008G15KT 3SM BR BKN015 OVC030
     FM241700 23010G20KT P6SM SCT023
     FM242300 27007KT P6SM SCT160=



000
FTUS42 KFFC 232335
TAFPDK
TAF
KPDK 232335Z 2400/2424 14008KT P6SM FEW007 BKN035
     FM240100 15008KT 4SM BR BKN025
     FM240300 19006KT 3SM BR OVC004
     FM241500 24010G15KT P6SM BKN015 OVC030
     FM241700 25010G20KT P6SM SCT035
     FM242300 27007KT P6SM SCT160=



000
FTUS42 KFFC 232335
TAFRYY
TAF
KRYY 232335Z 2400/2424 15008KT P6SM SCT005 BKN050
     FM240300 20008KT 3SM BR OVC004
     FM241500 24010G15KT P6SM BKN015 OVC030
     FM241700 25010G20KT P6SM SCT035
     FM242300 27007KT P6SM SCT160=



000
FTUS42 KFFC 232335
TAFMCN
TAF
KMCN 232335Z 2400/2424 20008G15KT P6SM SCT005 BKN050
     FM240300 20008KT 2SM BR OVC006
     FM241400 24010G15KT P6SM BKN015 OVC030
     FM241600 25010G20KT P6SM SCT035
     FM242300 27007KT P6SM FEW200=



000
FTUS42 KFFC 232241 AAB
TAFMCN
TAF AMD
KMCN 232241Z 2323/2418 19010G16KT 4SM -SHRA BR SCT006 BKN040
      TEMPO 2323/2324 VRB10G25KT 3SM TSRA BR OVC006CB
     FM240000 18010G18KT 4SM -SHRA BR OVC006
     FM240200 19009KT 2SM BR OVC006
     FM241500 24010KT P6SM SCT025=



000
FTUS42 KFFC 232241 AAB
TAFMCN
TAF AMD
KMCN 232241Z 2323/2418 19010G16KT 4SM -SHRA BR SCT006 BKN040
      TEMPO 2323/2324 VRB10G25KT 3SM TSRA BR OVC006CB
     FM240000 18010G18KT 4SM -SHRA BR OVC006
     FM240200 19009KT 2SM BR OVC006
     FM241500 24010KT P6SM SCT025=



000
FTUS42 KFFC 232239 AAB
TAFPDK
TAF AMD
KPDK 232239Z 2323/2418 10008KT 3SM -SHRA BR SCT007 BKN040
     FM240000 15007KT 4SM BR BKN025
     FM240200 19006KT 3SM BR OVC004
     FM241500 24008KT P6SM BKN015 OVC030=



000
FTUS42 KFFC 232239 AAB
TAFRYY
TAF AMD
KRYY 232239Z 2323/2418 12008KT 5SM BR SCT012 BKN040
     FM232300 15008KT 4SM BR BKN025
     FM240300 19006KT 3SM BR OVC004
     FM241500 24008KT P6SM BKN015 OVC030=



000
FTUS42 KFFC 232239 AAC
TAFFTY
TAF AMD
KFTY 232239Z 2323/2418 10007KT 4SM -SHRA BR SCT008 BKN040
     FM240000 15007KT 4SM BR BKN025
     FM240200 19006KT 3SM BR OVC004
     FM241500 24008KT P6SM BKN015 OVC030=



000
FTUS42 KFFC 232234 CCA
TAFATL
TAF COR
KATL 232234Z 2323/2424 12010G22KT 4SM -SHRA BR SCT025 BKN035
     FM240000 15010G20KT 4SM BR BKN025
     FM240300 19010KT 3SM BR OVC004
     FM241500 24012G19KT P6SM BKN015 OVC030
     FM241800 25012G20KT P6SM SCT035=



000
FTUS42 KFFC 232234 CCA
TAFATL
TAF COR
KATL 232234Z 2323/2424 12010G22KT 4SM -SHRA BR SCT025 BKN035
     FM240000 15010G20KT 4SM BR BKN025
     FM240300 19010KT 3SM BR OVC004
     FM241500 24012G19KT P6SM BKN015 OVC030
     FM241800 25012G20KT P6SM SCT035=



000
FTUS42 KFFC 232232 AAC
TAFATL
TAF AMD
KATL 232232Z 2323/2424 12014G22KT 4SM -SHRA BR SCT025 BKN035
     FM240000 15010G20KT 4SM -SHRA BR BKN025
     FM240300 19010KT 3SM BR OVC004
     FM241500 24012G19KT P6SM BKN015 OVC030
     FM241800 25012G20KT P6SM SCT035=



000
FTUS42 KFFC 232232 AAC
TAFATL
TAF AMD
KATL 232232Z 2323/2424 12014G22KT 4SM -SHRA BR SCT025 BKN035
     FM240000 15010G20KT 4SM -SHRA BR BKN025
     FM240300 19010KT 3SM BR OVC004
     FM241500 24012G19KT P6SM BKN015 OVC030
     FM241800 25012G20KT P6SM SCT035=



000
FTUS42 KFFC 232210 AAD
TAFCSG
TAF AMD
KCSG 232210Z 2322/2418 25010G18KT 6SM -SHRA BR BKN040
     FM240200 19009KT 4SM BR OVC007
     FM241500 24010KT P6SM SCT020=



000
FTUS42 KFFC 232144 AAB
TAFATL
TAF AMD
KATL 232144Z 2322/2424 10014G22KT 4SM -SHRA BR OVC006
      TEMPO 2322/2323 2SM SHRA BR OVC004
     FM232300 15010G20KT 4SM -SHRA BR OVC006
     FM240300 19010KT 3SM BR OVC004
     FM241500 24012G19KT P6SM BKN015 OVC030
     FM241800 25012G20KT P6SM SCT035=



000
FTUS42 KFFC 232058 AAC
TAFCSG
TAF AMD
KCSG 232058Z 2321/2418 25010G18KT 5SM -SHRA BR SCT006 BKN035
      TEMPO 2321/2322 VRB15G30KT 3SM TSRA BR OVC008CB
     FM240200 19009KT 4SM BR OVC007
     FM241500 24010KT P6SM SCT020=



000
FTUS42 KFFC 232054 AAB
TAFFTY
TAF AMD
KFTY 232054Z 2321/2418 10010G18KT 4SM -SHRA BR OVC007
      TEMPO 2321/2323 2SM TSRA BR OVC010CB
     FM232300 15008G16KT 4SM -SHRA BR OVC006
     FM240300 19006KT 3SM BR OVC004
     FM241500 24008KT P6SM BKN015 OVC030=



000
FTUS42 KFFC 232022 AAB
TAFCSG
TAF AMD
KCSG 232022Z 2320/2418 14010G18KT 5SM -SHRA BR OVC006
      TEMPO 2320/2322 VRB15G30KT 3SM TSRA BR OVC008CB
     FM240200 19009KT 4SM BR OVC007
     FM241500 24010KT P6SM SCT020=



000
FTUS42 KFFC 231951 AAA
TAFCSG
TAF AMD
KCSG 231951Z 2320/2418 14010G18KT 5SM -SHRA BR OVC006
      TEMPO 2320/2322 VRB10G30KT 3SM -TSRA BR OVC008CB
     FM240200 19009KT 4SM BR OVC007
     FM241500 24010KT P6SM SCT020=



000
FTUS42 KFFC 231948 AAA
TAFMCN
TAF AMD
KMCN 231948Z 2320/2418 14010G16KT 2SM -SHRA BR OVC004
      TEMPO 2321/2324 VRB10G25KT 1SM TSRA BR OVC006CB
     FM240000 18010G18KT 4SM -SHRA BR OVC006
     FM240400 19009KT 2SM BR OVC006
     FM241500 24010KT P6SM SCT025=



000
FTUS42 KFFC 231946 AAA
TAFRYY
TAF AMD
KRYY 231946Z 2320/2418 10010G18KT 4SM -SHRA BR OVC006
      TEMPO 2320/2323 2SM SHRA BR OVC004
     FM232300 15008G16KT 4SM -SHRA BR OVC006
     FM240300 19006KT 3SM BR OVC004
     FM241500 24008KT P6SM BKN015 OVC030=



000
FTUS42 KFFC 231945 AAA
TAFPDK
TAF AMD
KPDK 231945Z 2320/2418 08010G18KT 4SM -SHRA BR OVC007
      TEMPO 2320/2323 1SM SHRA BR OVC005
     FM232300 15008G16KT 4SM -SHRA BR OVC006
     FM240300 19006KT 3SM BR OVC004
     FM241500 24008KT P6SM BKN015 OVC030=



000
FTUS42 KFFC 231944 AAA
TAFFTY
TAF AMD
KFTY 231944Z 2320/2418 10010G18KT 4SM -SHRA BR OVC007
      TEMPO 2320/2323 1SM SHRA BR OVC005
     FM232300 15008G16KT 4SM -SHRA BR OVC006
     FM240300 19006KT 3SM BR OVC004
     FM241500 24008KT P6SM BKN015 OVC030=



000
FTUS42 KFFC 231942 AAA
TAFATL
TAF AMD
KATL 231942Z 2320/2424 10014G22KT 4SM -SHRA BR OVC006
      TEMPO 2320/2323 1SM SHRA BR OVC004
     FM232300 15010G20KT 4SM -SHRA BR OVC006
     FM240300 19010KT 3SM BR OVC004
     FM241500 24012G19KT P6SM BKN015 OVC030
     FM241800 25012G20KT P6SM SCT035=



000
FTUS42 KFFC 231818 AAA
TAFAHN
TAF AMD
KAHN 231818Z 2318/2418 08010G18KT 3SM SHRA BR OVC005
      TEMPO 2318/2320 2SM TSRA BR OVC005CB
     FM240000 11006KT 4SM -SHRA BR OVC003
     FM240200 13006KT 1SM BR OVC002
     FM241500 23007KT 3SM BR BKN015=



000
FTUS42 KFFC 231745
TAFPDK
TAF
KPDK 231745Z 2318/2418 10010G18KT 4SM -SHRA BR OVC005
      TEMPO 2318/2321 1SM TSRA BR OVC004CB
     FM232300 15008G16KT 4SM -SHRA BR OVC006
     FM240300 19006KT 3SM BR OVC004
     FM241500 24008KT P6SM BKN015 OVC030=



000
FTUS42 KFFC 231745
TAFATL
TAF
KATL 231745Z 2318/2424 10014G22KT 4SM -SHRA BR OVC004
      TEMPO 2318/2321 1SM TSRA BR OVC004CB
     FM232300 15010G20KT 4SM -SHRA BR OVC006
     FM240300 19010KT 3SM BR OVC004
     FM241500 24012G19KT P6SM BKN015 OVC030
     FM241800 25012G20KT P6SM SCT035=



000
FTUS42 KFFC 231745
TAFFTY
TAF
KFTY 231745Z 2318/2418 10010G18KT 4SM -SHRA BR OVC006
      TEMPO 2318/2321 1SM TSRA BR OVC004CB
     FM232300 15008G16KT 4SM -SHRA BR OVC006
     FM240300 19006KT 3SM BR OVC004
     FM241500 24008KT P6SM BKN015 OVC030=



000
FTUS42 KFFC 231745
TAFRYY
TAF
KRYY 231745Z 2318/2418 10010G18KT 4SM -SHRA BR OVC006
      TEMPO 2318/2321 2SM TSRA BR OVC004CB
     FM232300 15008G16KT 4SM -SHRA BR OVC006
     FM240300 19006KT 3SM BR OVC004
     FM241500 24008KT P6SM BKN015 OVC030=



000
FTUS42 KFFC 231745
TAFAHN
TAF
KAHN 231745Z 2318/2418 08012G19KT 3SM SHRA BR OVC005
     FM240000 11006KT 4SM -SHRA BR OVC003
     FM240200 13006KT 1SM BR OVC002
     FM241500 23007KT 3SM BR BKN015=



000
FTUS42 KFFC 231745
TAFMCN
TAF
KMCN 231745Z 2318/2418 10010G17KT 3SM -SHRA BR OVC006
     FM231900 16010G19KT 5SM BR VCSH OVC008
     FM232300 18010G18KT 4SM -SHRA BR OVC006
     FM240400 19009KT 2SM BR OVC006
     FM241500 24010KT P6SM SCT025=



000
FTUS42 KFFC 231745
TAFCSG
TAF
KCSG 231745Z 2318/2418 12010G18KT 5SM -SHRA BR BKN004 OVC010
     FM232000 16010G19KT 5SM -SHRA BR OVC006
      TEMPO 2320/2322 3SM -TSRA BR OVC008CB
     FM240200 19009KT 4SM BR OVC007
     FM241500 24010KT P6SM SCT020=



000
FTUS42 KFFC 231639 AAC
TAFATL
TAF AMD
KATL 231639Z 2317/2418 10012G20KT 4SM -SHRA BR OVC004
      TEMPO 2317/2319 2SM TSRA BR OVC004CB
     FM232300 15010G20KT 6SM BR VCSH OVC009
     FM240500 19010KT 4SM BR OVC007
     FM241400 24012G19KT P6SM BKN015 OVC030=



000
FTUS42 KFFC 231627 AAA
TAFRYY
TAF AMD
KRYY 231627Z 2316/2412 10012G20KT 3SM -SHRA BR OVC005
      TEMPO 2317/2318 2SM +TSRA BR OVC006CB
     FM232300 15009G18KT 6SM BR VCSH OVC009
     FM240500 19008KT 4SM BR OVC007=



000
FTUS42 KFFC 231626 AAC
TAFFTY
TAF AMD
KFTY 231626Z 2316/2412 10010G18KT 5SM -SHRA BR OVC007
      TEMPO 2317/2318 2SM -TSRA BR OVC006CB
     FM232300 15009G18KT 6SM BR VCSH OVC009
     FM240500 19009KT 4SM BR OVC007=



000
FTUS42 KFFC 231610 AAB
TAFFTY
TAF AMD
KFTY 231610Z 2316/2412 10010G18KT 5SM -SHRA BR OVC007
      TEMPO 2316/2318 2SM -SHRA BR
     FM232300 15009G18KT 6SM BR VCSH OVC009
     FM240500 19009KT 4SM BR OVC007=



000
FTUS42 KFFC 231610 AAB
TAFFTY
TAF AMD
KFTY 231610Z 2316/2412 10010G18KT 5SM -SHRA BR OVC007
      TEMPO 2316/2318 2SM -SHRA BR
     FM232300 15009G18KT 6SM BR VCSH OVC009
     FM240500 19009KT 4SM BR OVC007=



000
FTUS42 KFFC 231609 AAB
TAFPDK
TAF AMD
KPDK 231609Z 2316/2412 10011G19KT 3SM -SHRA BR OVC007
      TEMPO 2316/2318 2SM -SHRA BR OVC005
     FM232300 15010G19KT 6SM BR VCSH OVC009
     FM240500 19010KT 4SM BR OVC007=



000
FTUS42 KFFC 231609 AAB
TAFPDK
TAF AMD
KPDK 231609Z 2316/2412 10011G19KT 3SM -SHRA BR OVC007
      TEMPO 2316/2318 2SM -SHRA BR OVC005
     FM232300 15010G19KT 6SM BR VCSH OVC009
     FM240500 19010KT 4SM BR OVC007=



000
FTUS42 KFFC 231608 AAA
TAFCSG
TAF AMD
KCSG 231608Z 2316/2412 12010G18KT 4SM -SHRA BR OVC006
      TEMPO 2316/2317 1SM TSRA BR OVC008CB
     FM232000 16010G19KT 6SM BR VCSH OVC009
     FM240200 19009KT 4SM BR OVC007=



000
FTUS42 KFFC 231608 AAA
TAFCSG
TAF AMD
KCSG 231608Z 2316/2412 12010G18KT 4SM -SHRA BR OVC006
      TEMPO 2316/2317 1SM TSRA BR OVC008CB
     FM232000 16010G19KT 6SM BR VCSH OVC009
     FM240200 19009KT 4SM BR OVC007=



000
FTUS42 KFFC 231554 AAB
TAFATL
TAF AMD
KATL 231554Z 2316/2418 10012G20KT 4SM -SHRA BR OVC004
      TEMPO 2317/2319 2SM SHRA BR
     FM232300 15010G20KT 6SM BR VCSH OVC009
     FM240500 19010KT 4SM BR OVC007
     FM241400 24012G19KT P6SM BKN015 OVC030=



000
FTUS42 KFFC 231554 AAB
TAFATL
TAF AMD
KATL 231554Z 2316/2418 10012G20KT 4SM -SHRA BR OVC004
      TEMPO 2317/2319 2SM SHRA BR
     FM232300 15010G20KT 6SM BR VCSH OVC009
     FM240500 19010KT 4SM BR OVC007
     FM241400 24012G19KT P6SM BKN015 OVC030=



000
FTUS42 KFFC 231401 AAB
TAFAHN
TAF AMD
KAHN 231401Z 2314/2412 07010KT 4SM -RA BR OVC003
      TEMPO 2314/2316 2SM -RA BR
     FM231800 08012G19KT 5SM -SHRA BR OVC007
     FM240000 11009KT 6SM BR VCSH OVC008
     FM240400 18009KT 4SM BR OVC006=



000
FTUS42 KFFC 231359 AAA
TAFATL
TAF AMD
KATL 231359Z 2314/2418 10012G20KT 4SM -SHRA BR OVC004
     FM232300 15010G20KT 6SM BR VCSH OVC009
     FM240500 19010KT 4SM BR OVC007
     FM241400 24012G19KT P6SM BKN015 OVC030=



000
FTUS42 KFFC 231306 AAA
TAFPDK
TAF AMD
KPDK 231306Z 2313/2412 08009KT 5SM -RA BR OVC005
      TEMPO 2313/2315 2SM RA BR OVC003
     FM231500 10011G19KT 5SM -SHRA BR OVC007
     FM232300 15010G19KT 6SM BR VCSH OVC009
     FM240500 19010KT 4SM BR OVC007=



000
FTUS42 KFFC 231305 AAA
TAFFTY
TAF AMD
KFTY 231305Z 2313/2412 08010KT 5SM -RA BR OVC006
      TEMPO 2313/2315 2SM RA BR
     FM231500 10012G20KT 5SM -SHRA BR OVC007
     FM232300 15009G18KT 6SM BR VCSH OVC009
     FM240500 19009KT 4SM BR OVC007=



000
FTUS42 KFFC 231228 AAA
TAFAHN
TAF AMD
KAHN 231228Z 2312/2412 07010KT 5SM -RA BR OVC003
      TEMPO 2312/2314 2SM -RA BR
     FM231400 08012G19KT 5SM -SHRA BR OVC007
     FM240000 11009KT 6SM BR VCSH OVC008
     FM240400 18009KT 4SM BR OVC006=



000
FTUS42 KFFC 231128
TAFCSG
TAF
KCSG 231128Z 2312/2412 11009G17KT 4SM -RA BR OVC006
     FM231400 12010G19KT 4SM -SHRA BR OVC007
     FM232000 16010G19KT 6SM BR VCSH OVC009
     FM240200 19009KT 4SM BR OVC007=



000
FTUS42 KFFC 231128
TAFMCN
TAF
KMCN 231128Z 2312/2412 08007KT 3SM RA BR OVC006
     FM231400 10010G17KT 4SM -SHRA BR OVC007
     FM232000 16010G19KT 6SM BR VCSH OVC009
     FM240200 19009KT 4SM BR OVC007=



000
FTUS42 KFFC 231128
TAFAHN
TAF
KAHN 231128Z 2312/2412 07010KT 5SM -RA BR OVC006
     FM231400 08012G19KT 5SM -SHRA BR OVC007
     FM240000 11009KT 6SM BR VCSH OVC008
     FM240400 18009KT 4SM BR OVC006=



000
FTUS42 KFFC 231128
TAFPDK
TAF
KPDK 231128Z 2312/2412 08009KT 5SM -RA BR OVC005
     FM231400 10011G19KT 5SM -SHRA BR OVC007
     FM232300 15010G19KT 6SM BR VCSH OVC009
     FM240500 19010KT 4SM BR OVC007=



000
FTUS42 KFFC 231128
TAFRYY
TAF
KRYY 231128Z 2312/2412 08008KT 5SM -RA BR OVC006
     FM231400 10012G20KT 5SM -SHRA BR OVC007
     FM232300 15009G18KT 6SM BR VCSH OVC009
     FM240500 19008KT 4SM BR OVC007=



000
FTUS42 KFFC 231128
TAFFTY
TAF
KFTY 231128Z 2312/2412 08010KT 5SM -RA BR OVC006
     FM231400 10012G20KT 5SM -SHRA BR OVC007
     FM232300 15009G18KT 6SM BR VCSH OVC009
     FM240500 19009KT 4SM BR OVC007=



000
FTUS42 KFFC 231128
TAFATL
TAF
KATL 231128Z 2312/2418 09012KT 5SM -RA BR OVC004
      TEMPO 2312/2314 1SM -RA BR OVC003
     FM231400 10013G22KT 5SM -SHRA BR OVC005
     FM232300 15010G20KT 6SM BR VCSH OVC009
     FM240500 19010KT 4SM BR OVC007
     FM241400 24012G19KT P6SM BKN015 OVC030=



000
FTUS42 KFFC 230935 AAB
TAFATL
TAF AMD
KATL 230935Z 2310/2412 08012KT 4SM -RA BR OVC008
     FM231400 10013G22KT 2SM SHRA BR OVC006 PROB30 2319/2322 2SM
      TSRA OVC015CB
     FM232300 15010G20KT 5SM BR VCSH OVC009
     FM240500 19009KT 4SM BR OVC008=



000
FTUS42 KFFC 230817 AAA
TAFMCN
TAF AMD
KMCN 230817Z 2308/2406 08007KT 3SM RA BR OVC006
     FM231200 12010G17KT 2SM SHRA BR OVC005 PROB30 2317/2320 2SM
      TSRA OVC015CB
     FM232000 16010G19KT 5SM BR VCSH OVC009
     FM240200 19008KT 4SM BR OVC007=



    US Dept of Commerce
    National Oceanic and Atmospheric Administration
    National Weather Service
    1325 East West Highway
    Silver Spring, MD 20910
    Page Author: NWS Internet Services Team
Disclaimer
Information Quality
Credits
Glossary
Privacy Policy
Freedom of Information Act (FOIA)
About Us
Career Opportunities